createdAt,value
2024-01-06T00:00:00.649Z,224
2024-01-06T00:10:00.621Z,209
2024-01-06T00:20:00.834Z,226
2024-01-06T00:30:00.651Z,213
2024-01-06T00:40:00.693Z,228
2024-01-06T00:50:00.648Z,213
2024-01-06T01:00:00.671Z,192
2024-01-06T01:10:00.636Z,211
2024-01-06T01:20:00.765Z,187
2024-01-06T01:30:00.745Z,185
2024-01-06T01:40:00.641Z,214
2024-01-06T01:50:00.791Z,202
2024-01-06T02:00:00.655Z,182
2024-01-06T02:10:00.671Z,181
2024-01-06T02:20:00.704Z,179
2024-01-06T02:30:00.636Z,177
2024-01-06T02:40:00.663Z,178
2024-01-06T02:50:00.714Z,178
2024-01-06T03:00:00.770Z,182
2024-01-06T03:10:00.677Z,176
2024-01-06T03:20:00.832Z,182
2024-01-06T03:30:00.613Z,178
2024-01-06T03:40:00.676Z,178
2024-01-06T03:50:00.661Z,171
2024-01-06T04:00:00.668Z,174
2024-01-06T04:10:00.806Z,184
2024-01-06T04:20:00.631Z,168
2024-01-06T04:30:00.629Z,167
2024-01-06T04:40:00.728Z,166
2024-01-06T04:50:00.703Z,163
2024-01-06T05:00:00.661Z,162
2024-01-06T05:10:00.620Z,150
2024-01-06T05:20:00.596Z,148
2024-01-06T05:30:00.714Z,150
2024-01-06T05:40:00.668Z,162
2024-01-06T05:50:00.682Z,161
2024-01-06T06:00:00.655Z,159
2024-01-06T06:10:00.806Z,159
2024-01-06T06:20:00.733Z,158
2024-01-06T06:30:00.630Z,157
2024-01-06T06:40:00.678Z,158
2024-01-06T06:50:00.778Z,165
2024-01-06T07:00:00.614Z,172
2024-01-06T07:10:00.670Z,164
2024-01-06T07:20:00.709Z,171
2024-01-06T07:30:00.684Z,169
2024-01-06T07:40:00.815Z,151
2024-01-06T07:50:00.761Z,157
2024-01-06T08:00:04.335Z,181
2024-01-06T08:10:00.684Z,181
2024-01-06T08:20:00.622Z,145
2024-01-06T08:30:00.744Z,166
2024-01-06T08:40:00.819Z,176
2024-01-06T08:50:00.896Z,203
2024-01-06T09:00:00.749Z,188
2024-01-06T09:10:00.817Z,175
2024-01-06T09:20:00.620Z,142
2024-01-06T09:30:00.715Z,141
2024-01-06T09:40:00.698Z,150
2024-01-06T09:50:00.739Z,152
2024-01-06T10:00:00.738Z,179
2024-01-06T10:10:00.711Z,147
2024-01-06T10:20:01.031Z,143
2024-01-06T10:30:00.600Z,155
2024-01-06T10:40:00.802Z,153
2024-01-06T10:50:02.063Z,136
2024-01-06T11:00:00.661Z,138
2024-01-06T11:10:00.899Z,137
2024-01-06T11:20:00.814Z,152
2024-01-06T11:30:00.656Z,143
2024-01-06T11:40:00.741Z,138
2024-01-06T11:50:00.715Z,127
2024-01-06T12:00:00.665Z,126
2024-01-06T12:10:00.677Z,228
2024-01-06T12:20:00.774Z,151
2024-01-06T12:30:00.740Z,172
2024-01-06T12:40:01.030Z,132
2024-01-06T12:50:00.665Z,144
2024-01-06T13:00:00.805Z,138
2024-01-06T13:10:00.794Z,122
2024-01-06T13:20:00.755Z,130
2024-01-06T13:30:00.745Z,122
2024-01-06T13:40:00.824Z,149
2024-01-06T13:50:00.981Z,120
2024-01-06T14:00:00.716Z,186
2024-01-06T14:10:00.745Z,138
2024-01-06T14:20:00.971Z,116
2024-01-06T14:30:00.637Z,119
2024-01-06T14:40:00.716Z,196
2024-01-06T14:50:00.858Z,174
2024-01-06T15:00:00.820Z,154
2024-01-06T15:10:03.934Z,177
2024-01-06T15:20:00.630Z,131
2024-01-06T15:30:00.614Z,150
2024-01-06T15:40:00.916Z,138
2024-01-06T15:50:00.693Z,181
2024-01-06T16:00:00.730Z,210
2024-01-06T16:10:00.758Z,160
2024-01-06T16:20:03.709Z,177
2024-01-06T16:30:00.729Z,140
2024-01-06T16:40:00.909Z,133
2024-01-06T16:50:00.728Z,133
2024-01-06T17:00:00.652Z,143
2024-01-06T17:10:00.902Z,143
2024-01-06T17:20:00.794Z,119
2024-01-06T17:30:00.641Z,119
2024-01-06T17:40:00.759Z,102
2024-01-06T17:50:00.740Z,115
2024-01-06T18:00:00.690Z,117
2024-01-06T18:10:00.736Z,113
2024-01-06T18:20:00.606Z,136
2024-01-06T18:30:00.731Z,109
2024-01-06T18:40:00.821Z,110
2024-01-06T18:50:00.850Z,120
2024-01-06T19:00:00.870Z,108
2024-01-06T19:10:00.859Z,102
2024-01-06T19:20:00.645Z,112
2024-01-06T19:30:00.712Z,128
2024-01-06T19:40:00.791Z,132
2024-01-06T19:50:00.682Z,106
2024-01-06T20:00:00.708Z,134
2024-01-06T20:10:00.751Z,156
2024-01-06T20:20:00.788Z,160
2024-01-06T20:30:00.625Z,122
2024-01-06T20:40:00.717Z,109
2024-01-06T20:50:00.616Z,136
2024-01-06T21:00:00.708Z,154
2024-01-06T21:10:00.705Z,115
2024-01-06T21:20:00.657Z,110
2024-01-06T21:30:00.672Z,101
2024-01-06T21:40:00.822Z,87
2024-01-06T21:50:00.698Z,84
2024-01-06T22:00:03.345Z,103
2024-01-06T22:10:00.800Z,93
2024-01-06T22:20:00.753Z,91
2024-01-06T22:30:00.729Z,98
2024-01-06T22:40:00.911Z,95
2024-01-06T22:50:00.675Z,121
2024-01-06T23:00:00.673Z,119
2024-01-06T23:10:00.829Z,91
2024-01-06T23:20:00.756Z,94
2024-01-06T23:30:03.882Z,93
2024-01-06T23:40:00.818Z,83
2024-01-06T23:50:00.751Z,88
